Terminal Aerodrome Forecast
Issued by NWS

Home | Current Version | Previous Version | Text Only | Print | Product List | Glossary On
Versions: 1 2 3 4 5 6 7 8 9 10 11 12 13 14
000
FTUS41 KCAR 310536
TAFPQI
TAF
KPQI 310536Z 3106/0106 22005KT P6SM SCT150
      TEMPO 3108/3111 3SM BR SCT009
     FM311200 23009KT P6SM BKN080
     FM311500 25013G20KT P6SM BKN060
     FM010000 32009KT P6SM FEW250
      AMD LTD TO CLD VIS AND WIND=

USA.gov is the U.S. government's official web portal to all federal, state and local government web resources and services.